7W4

Lake Anna Airport

Bumpass, Virginia, USA
METAR K7W4 170015Z AUTO 00000KT 10SM CLR 23/22 A2994 RMK AO1 T02310224
Observed Flight Rules
Jul-17 @ 00:15 UTC (10 minutes ago) Visual Flight Rules
Visibility Clouds
10 miles
  • Clear skies
Temperatures Readings
Current 23°C / 73°F
Dewpoint 22°C / 72°F
Humidity 94%
Altimeter 29.94" Hg
Pressure 1014 hPa
Elevation 106
METAR K7W4 170015Z AUTO 00000KT 10SM CLR 23/22 A2994 RMK AO1 T02310224
Observed Flight Rules
Jul-17 @ 00:15 UTC
(10 minutes ago)
VFR
Clouds
  • Clear skies
Temperature Dewpoint
23°C / 73°F 22°C / 72°F
Humidity Altimeter Pressure
94% 29.94" Hg 1014 hPa